createdAt,value
2024-03-24T00:04:11.769Z,0
2024-03-24T00:09:30.850Z,0
2024-03-24T00:14:50.774Z,0
2024-03-24T00:25:29.801Z,0
2024-03-24T00:30:49.502Z,0
2024-03-24T00:36:08.631Z,0
2024-03-24T00:41:27.446Z,0
2024-03-24T00:46:46.547Z,0
2024-03-24T00:57:24.414Z,0
2024-03-24T01:02:44.141Z,0
2024-03-24T01:09:18.341Z,0
2024-03-24T01:13:21.606Z,0
2024-03-24T01:18:40.682Z,0
2024-03-24T01:24:44.945Z,0
2024-03-24T01:30:03.711Z,0
2024-03-24T01:35:23.434Z,0
2024-03-24T01:40:43.086Z,0
2024-03-24T01:46:02.397Z,0
2024-03-24T01:56:40.523Z,0
2024-03-24T02:01:59.744Z,0
2024-03-24T02:07:19.151Z,0
2024-03-24T02:12:38.249Z,0
2024-03-24T02:18:00.460Z,0
2024-03-24T02:23:17.459Z,0
2024-03-24T02:28:35.890Z,0
2024-03-24T02:39:14.072Z,0
2024-03-24T02:44:32.916Z,0
2024-03-24T02:55:11.575Z,0
2024-03-24T03:00:30.948Z,0
2024-03-24T03:11:10.355Z,0
2024-03-24T03:16:29.471Z,0
2024-03-24T03:27:08.963Z,0
2024-03-24T03:37:47.798Z,0
2024-03-24T03:43:07.156Z,0
2024-03-24T03:48:26.052Z,0
2024-03-24T03:53:45.321Z,0
2024-03-24T03:59:04.916Z,0
2024-03-24T04:04:24.443Z,0
2024-03-24T04:09:43.380Z,0
2024-03-24T04:15:03.299Z,0
2024-03-24T04:20:22.319Z,0
2024-03-24T04:25:41.036Z,0
2024-03-24T04:36:19.971Z,0
2024-03-24T04:46:58.616Z,0
2024-03-24T04:52:17.832Z,0
2024-03-24T04:57:36.689Z,0
2024-03-24T05:02:55.955Z,0
2024-03-24T05:08:15.440Z,4
2024-03-24T05:13:35.070Z,15
2024-03-24T05:18:54.210Z,27.05
2024-03-24T05:24:13.009Z,26.05
2024-03-24T05:29:32.329Z,28.1
2024-03-24T05:34:51.557Z,38.19
2024-03-24T05:40:10.736Z,36.75
2024-03-24T05:45:29.580Z,40.39
2024-03-24T05:50:48.881Z,42.25
2024-03-24T05:56:07.943Z,54.94
2024-03-24T06:01:27.215Z,64.89
2024-03-24T06:06:46.211Z,45.6
2024-03-24T06:12:05.763Z,86.84
2024-03-24T06:22:44.181Z,103.39
2024-03-24T06:28:03.028Z,144.19
2024-03-24T06:38:41.713Z,220.04
2024-03-24T06:44:01.427Z,229.95
2024-03-24T06:49:20.850Z,209.39
2024-03-24T06:54:40.019Z,238.59
2024-03-24T06:59:59.197Z,243.89
2024-03-24T07:05:18.432Z,287.5
2024-03-24T07:10:38.163Z,266.84
2024-03-24T07:15:57.120Z,258.64
2024-03-24T07:21:16.492Z,241.29
2024-03-24T07:26:36.058Z,394.79
2024-03-24T07:31:54.953Z,382.84
2024-03-24T07:37:14.961Z,266.89
2024-03-24T07:42:33.445Z,215.29
2024-03-24T07:47:53.762Z,259.89
2024-03-24T07:53:11.911Z,469.25
2024-03-24T07:58:31.654Z,528.5
2024-03-24T08:03:50.917Z,270.04
2024-03-24T08:09:11.151Z,207.64
2024-03-24T08:14:28.763Z,329.65
2024-03-24T08:19:48.020Z,468.59
2024-03-24T08:25:06.982Z,475.5
2024-03-24T08:30:25.777Z,497.4
2024-03-24T08:35:45.521Z,425.15
2024-03-24T08:41:05.419Z,596.5
2024-03-24T08:51:44.796Z,74.08
2024-03-24T09:02:24.664Z,302.59
2024-03-24T09:07:43.455Z,353.25
2024-03-24T09:13:02.457Z,387.15
2024-03-24T09:18:22.381Z,321.04
2024-03-24T09:23:40.883Z,570.59
2024-03-24T09:29:00.643Z,239.04
2024-03-24T09:34:20.358Z,414.19
2024-03-24T09:39:39.952Z,247.34
2024-03-24T09:44:58.038Z,488.84
2024-03-24T09:50:17.849Z,405.79
2024-03-24T09:55:36.113Z,308.29
2024-03-24T10:00:55.867Z,303.34
2024-03-24T10:06:14.677Z,307.54
2024-03-24T10:11:33.721Z,316.15
2024-03-24T10:16:53.307Z,445.19
2024-03-24T10:22:13.042Z,361.29
2024-03-24T10:27:32.425Z,463.69
2024-03-24T10:32:51.928Z,258.84
2024-03-24T10:38:10.371Z,221.59
2024-03-24T10:43:29.890Z,206.95
2024-03-24T10:48:49.079Z,288.04
2024-03-24T10:59:28.014Z,587.54
2024-03-24T11:04:47.383Z,267.89
2024-03-24T11:15:25.859Z,268.25
2024-03-24T11:20:45.534Z,330.79
2024-03-24T11:26:05.698Z,364.15
2024-03-24T11:31:23.888Z,427.19
2024-03-24T11:36:43.589Z,402.15
2024-03-24T11:42:03.794Z,552.15
2024-03-24T11:47:21.686Z,203.5
2024-03-24T11:52:41.131Z,366.69
2024-03-24T12:03:19.907Z,393.65
2024-03-24T12:08:38.384Z,336.15
2024-03-24T12:13:57.706Z,387.19
2024-03-24T12:19:17.057Z,326.69
2024-03-24T12:24:36.324Z,212.04
2024-03-24T12:35:14.251Z,347.73
2024-03-24T12:40:33.088Z,66.23
2024-03-24T12:45:52.140Z,509.54
2024-03-24T12:51:11.907Z,105.14
2024-03-24T12:56:31.486Z,122.44
2024-03-24T13:01:50.787Z,406
2024-03-24T13:07:10.090Z,252.54
2024-03-24T13:12:29.466Z,110.05
2024-03-24T13:17:49.029Z,325.84
2024-03-24T13:28:27.507Z,213.95
2024-03-24T13:33:46.606Z,596.65
2024-03-24T13:39:05.320Z,111.39
2024-03-24T13:44:24.343Z,613.25
2024-03-24T13:49:43.660Z,38.83
2024-03-24T14:00:21.863Z,200.64
2024-03-24T14:05:41.389Z,322.94
2024-03-24T14:11:01.111Z,524.29
2024-03-24T14:16:20.340Z,318.79
2024-03-24T14:26:58.752Z,301.45
2024-03-24T14:32:18.347Z,282.09
2024-03-24T14:37:37.984Z,288.79
2024-03-24T14:42:56.912Z,213.09
2024-03-24T14:48:15.959Z,222.83
2024-03-24T14:53:35.350Z,90.58
2024-03-24T14:58:54.982Z,219.89
2024-03-24T15:04:14.072Z,207.83
2024-03-24T15:09:33.958Z,611
2024-03-24T15:14:54.274Z,346.94
2024-03-24T15:25:32.376Z,358.44
2024-03-24T15:30:52.231Z,292.15
2024-03-24T15:36:11.140Z,347.54
2024-03-24T15:41:30.081Z,260.5
2024-03-24T15:52:07.511Z,183.45
2024-03-24T15:57:26.736Z,189.5
2024-03-24T16:02:45.846Z,160.94
2024-03-24T16:08:04.791Z,87.3
2024-03-24T16:13:24.247Z,100.69
2024-03-24T16:18:44.418Z,181.25
2024-03-24T16:24:03.951Z,90.95
2024-03-24T16:34:41.775Z,71.64
2024-03-24T16:40:00.254Z,100.75
2024-03-24T16:45:19.049Z,97.44
2024-03-24T16:50:38.316Z,77.25
2024-03-24T16:55:58.025Z,48.3
2024-03-24T17:01:16.961Z,43.25
2024-03-24T17:06:36.482Z,42.1
2024-03-24T17:11:55.792Z,30
2024-03-24T17:17:15.025Z,4
2024-03-24T17:22:34.695Z,25
2024-03-24T17:27:54.036Z,48.15
2024-03-24T17:33:12.388Z,31.2
2024-03-24T17:38:31.556Z,1
2024-03-24T17:43:50.306Z,0
2024-03-24T17:49:09.836Z,0
2024-03-24T17:54:29.635Z,0
2024-03-24T18:05:07.571Z,0
2024-03-24T18:10:27.080Z,0
2024-03-24T18:15:46.879Z,0
2024-03-24T18:26:25.452Z,0
2024-03-24T18:31:45.348Z,0
2024-03-24T18:37:04.898Z,0
2024-03-24T18:42:24.416Z,0
2024-03-24T18:47:43.663Z,0
2024-03-24T18:53:02.922Z,0
2024-03-24T18:58:22.514Z,0
2024-03-24T19:03:41.964Z,0
2024-03-24T19:14:44.676Z,0
2024-03-24T19:20:03.550Z,0
2024-03-24T19:25:22.346Z,0
2024-03-24T19:30:42.291Z,0
2024-03-24T19:36:02.286Z,0
2024-03-24T19:41:20.367Z,0
2024-03-24T19:46:39.384Z,0
2024-03-24T19:57:18.039Z,0
2024-03-24T20:07:56.639Z,0
2024-03-24T20:13:15.932Z,0
2024-03-24T20:18:35.536Z,0
2024-03-24T20:23:54.438Z,0
2024-03-24T20:29:13.976Z,0
2024-03-24T20:39:52.732Z,0
2024-03-24T20:45:13.031Z,0
2024-03-24T20:50:31.501Z,0
2024-03-24T20:55:50.567Z,0
2024-03-24T21:06:29.112Z,0
2024-03-24T21:11:47.967Z,0
2024-03-24T21:17:07.523Z,0
2024-03-24T21:22:26.623Z,0
2024-03-24T21:27:45.692Z,0
2024-03-24T21:33:05.060Z,0
2024-03-24T21:38:24.514Z,0
2024-03-24T21:43:43.496Z,0
2024-03-24T21:49:03.127Z,0
2024-03-24T21:54:21.723Z,0
2024-03-24T21:59:40.753Z,0
2024-03-24T22:05:00.204Z,0
2024-03-24T22:15:38.223Z,0
2024-03-24T22:20:57.463Z,0
2024-03-24T22:26:16.710Z,0
2024-03-24T22:31:36.141Z,0
2024-03-24T22:36:55.151Z,0
2024-03-24T22:47:34.290Z,0
2024-03-24T22:58:12.395Z,0
2024-03-24T23:03:31.508Z,0
2024-03-24T23:08:50.720Z,0
2024-03-24T23:14:10.352Z,0
2024-03-24T23:19:29.240Z,0
2024-03-24T23:24:48.703Z,0
2024-03-24T23:30:07.606Z,0
2024-03-24T23:35:26.425Z,0
2024-03-24T23:40:46.080Z,0
2024-03-24T23:46:10.954Z,0
2024-03-24T23:51:25.049Z,0
2024-03-24T23:56:44.534Z,0
